Captiva — WDF3796 — position and weather

sailwx.info

Track history (hours):
 
Tides and Currents Weather Stations Pressure Air Temp Water Temp Dewpoint Dewpoint Depression Visibility Wind Speed Wind Dir Waves Ship Positions

Captiva

Owner: Callahan, Michael F, Swampscott, MA. More information available from US FCC via Universal Licensing System and Coast Guard Vessel Documentation Center.

Last reported at 2018-Jul-28 21:13 UTC. Time now 2018-Aug-14 23:42 UTC.
Position N 42°22' W 071°03'.
Warning: this ship's position is 17 days out of date.

Length 15 m.

Type: Sailing vessel. MMSI: 367444090.

Date/timePositionNaut miles runAvg speedWind from/ knotsBaromVisibWave heightAir tempDewpointWater temp
2018-Jul-28 21:13N 42°22' W 071°03'0 0.0
2018-Jul-28 20:58N 42°22' W 071°03'2 3.6
2018-Jul-28 20:30N 42°21' W 071°02'4 6.9
2018-Jul-28 20:00N 42°20' W 070°57'3 7.0
2018-Jul-28 19:30N 42°19' W 070°53'  
2018-Jul-20 17:13N 42°02' W 070°34'2 7.8
2018-Jul-20 16:59N 42°03' W 070°35'4 7.9
2018-Jul-20 16:30N 42°07' W 070°37'4 7.8
2018-Jul-20 15:59N 42°10' W 070°40'4 7.6
2018-Jul-20 15:30N 42°13' W 070°42'4 7.8
2018-Jul-20 15:00N 42°17' W 070°45'4 8.1
2018-Jul-20 14:29N 42°19' W 070°50'4 8.6
2018-Jul-20 14:00N 42°19' W 070°55'4 7.9
2018-Jul-20 13:28N 42°21' W 071°01'  
Track history (hours):
 
Tides and Currents Weather Stations Pressure Air Temp Water Temp Dewpoint Dewpoint Depression Visibility Wind Speed Wind Dir Waves Ship Positions

Captiva

Owner: Callahan, Michael F, Swampscott, MA. More information available from US FCC via Universal Licensing System and Coast Guard Vessel Documentation Center.

Last reported at 2018-Jul-28 21:13 UTC. Time now 2018-Aug-14 23:42 UTC.
Position N 42°22' W 071°03'.
Warning: this ship's position is 17 days out of date.

Length 15 m.

Type: Sailing vessel. MMSI: 367444090.

Date/timePositionNaut miles runAvg speedWind from/ knotsBaromVisibWave heightAir tempDewpointWater temp
2018-Jul-28 21:13N 42°22' W 071°03'0 0.0
2018-Jul-28 20:58N 42°22' W 071°03'2 3.6
2018-Jul-28 20:30N 42°21' W 071°02'4 6.9
2018-Jul-28 20:00N 42°20' W 070°57'3 7.0
2018-Jul-28 19:30N 42°19' W 070°53'  
2018-Jul-20 17:13N 42°02' W 070°34'2 7.8
2018-Jul-20 16:59N 42°03' W 070°35'4 7.9
2018-Jul-20 16:30N 42°07' W 070°37'4 7.8
2018-Jul-20 15:59N 42°10' W 070°40'4 7.6
2018-Jul-20 15:30N 42°13' W 070°42'4 7.8
2018-Jul-20 15:00N 42°17' W 070°45'4 8.1
2018-Jul-20 14:29N 42°19' W 070°50'4 8.6
2018-Jul-20 14:00N 42°19' W 070°55'4 7.9
2018-Jul-20 13:28N 42°21' W 071°01'  

Dump ship's entire track history